createdAt,value
2019-01-23T00:00:54.653Z,52.83
2019-01-23T00:03:24.089Z,58.07
2019-01-23T00:05:53.633Z,54.93
2019-01-23T00:08:23.109Z,58.87
2019-01-23T00:10:52.619Z,55.47
2019-01-23T00:13:22.107Z,59.70
2019-01-23T00:15:51.563Z,57.77
2019-01-23T00:18:21.049Z,50.47
2019-01-23T00:20:50.505Z,52.13
2019-01-23T00:23:20.065Z,52.77
2019-01-23T00:25:49.599Z,52.20
2019-01-23T00:28:19.069Z,53.13
2019-01-23T00:30:48.477Z,51.23
2019-01-23T00:33:17.995Z,50.83
2019-01-23T00:35:47.555Z,51.67
2019-01-23T00:38:17.076Z,56.10
2019-01-23T00:40:46.679Z,55.83
2019-01-23T00:43:16.127Z,52.03
2019-01-23T00:45:45.621Z,52.70
2019-01-23T00:48:15.079Z,53.20
2019-01-23T00:50:44.467Z,49.33
2019-01-23T00:53:13.928Z,52.27
2019-01-23T00:55:43.333Z,59.53
2019-01-23T00:58:12.822Z,51.93
2019-01-23T01:00:42.669Z,56.87
2019-01-23T01:03:12.281Z,55.10
2019-01-23T01:05:41.765Z,54.47
2019-01-23T01:08:11.247Z,55.10
2019-01-23T01:10:40.743Z,56.40
2019-01-23T01:13:10.287Z,60.07
2019-01-23T01:15:39.871Z,56.33
2019-01-23T01:18:09.436Z,60.43
2019-01-23T01:20:39.061Z,51.73
2019-01-23T01:23:08.515Z,61.90
2019-01-23T01:25:37.978Z,58.73
2019-01-23T01:28:07.401Z,62.03
2019-01-23T01:30:36.943Z,57.93
2019-01-23T01:33:06.535Z,62.63
2019-01-23T01:35:36.012Z,55.63
2019-01-23T01:38:05.708Z,60.77
2019-01-23T01:40:35.165Z,55.57
2019-01-23T01:43:04.881Z,54.20
2019-01-23T01:45:34.355Z,51.33
2019-01-23T01:48:03.826Z,59.60
2019-01-23T01:50:33.296Z,54.00
2019-01-23T01:53:02.788Z,54.17
2019-01-23T01:55:32.274Z,54.67
2019-01-23T01:58:01.742Z,54.90
2019-01-23T02:00:31.312Z,52.27
2019-01-23T02:03:00.822Z,48.40
2019-01-23T02:05:30.299Z,48.70
2019-01-23T02:07:59.840Z,56.27
2019-01-23T02:10:29.347Z,49.80
2019-01-23T02:12:58.752Z,53.33
2019-01-23T02:15:28.248Z,51.13
2019-01-23T02:17:57.721Z,51.40
2019-01-23T02:20:27.646Z,51.27
2019-01-23T02:22:57.137Z,47.87
2019-01-23T02:25:26.600Z,49.67
2019-01-23T02:27:56.164Z,47.90
2019-01-23T02:30:25.806Z,46.27
2019-01-23T02:32:55.173Z,46.43
2019-01-23T02:35:24.590Z,44.97
2019-01-23T02:37:54.088Z,44.47
2019-01-23T02:40:23.668Z,43.27
2019-01-23T02:42:53.576Z,43.30
2019-01-23T02:45:23.144Z,45.10
2019-01-23T02:47:53.438Z,44.97
2019-01-23T02:50:22.967Z,44.30
2019-01-23T02:52:52.447Z,43.37
2019-01-23T02:55:21.879Z,46.23
2019-01-23T02:57:51.332Z,44.70
2019-01-23T03:00:20.914Z,45.93
2019-01-23T03:02:50.562Z,44.23
2019-01-23T03:05:20.317Z,49.10
2019-01-23T03:07:49.791Z,48.07
2019-01-23T03:10:20.136Z,47.77
2019-01-23T03:12:49.781Z,50.53
2019-01-23T03:15:19.709Z,47.70
2019-01-23T03:17:49.196Z,46.53
2019-01-23T03:20:19.122Z,51.20
2019-01-23T03:22:48.663Z,49.00
2019-01-23T03:25:18.459Z,52.37
2019-01-23T03:27:47.993Z,51.57
2019-01-23T03:30:21.737Z,51.80
2019-01-23T03:32:51.263Z,48.23
2019-01-23T03:35:22.032Z,55.10
2019-01-23T03:37:51.467Z,57.40
2019-01-23T03:40:21.541Z,51.30
2019-01-23T03:42:51.111Z,56.20
2019-01-23T03:45:20.669Z,53.90
2019-01-23T03:47:50.144Z,56.07
2019-01-23T03:50:20.709Z,55.10
2019-01-23T03:52:50.288Z,52.40
2019-01-23T03:55:19.906Z,57.83
2019-01-23T03:57:49.614Z,52.97
2019-01-23T04:00:20.635Z,54.83
2019-01-23T04:02:52.762Z,58.27
2019-01-23T04:05:22.461Z,51.87
2019-01-23T04:07:51.903Z,55.87
2019-01-23T04:10:21.401Z,55.10
2019-01-23T04:12:50.886Z,53.63
2019-01-23T04:15:20.364Z,54.47
2019-01-23T04:17:49.858Z,54.77
2019-01-23T04:20:21.138Z,52.30
2019-01-23T04:22:50.579Z,54.80
2019-01-23T04:25:20.197Z,55.60
2019-01-23T04:27:49.644Z,54.20
2019-01-23T04:30:21.452Z,46.47
2019-01-23T04:32:51.124Z,49.50
2019-01-23T04:35:20.762Z,53.03
2019-01-23T04:37:50.216Z,46.50
2019-01-23T04:40:19.883Z,56.37
2019-01-23T04:42:49.328Z,52.60
2019-01-23T04:45:18.906Z,47.27
2019-01-23T04:47:48.378Z,47.90
2019-01-23T04:50:18.534Z,49.43
2019-01-23T04:53:06.314Z,51.53
2019-01-23T04:55:37.142Z,49.97
2019-01-23T04:58:06.574Z,42.57
2019-01-23T05:00:36.103Z,50.23
2019-01-23T05:03:05.558Z,49.40
2019-01-23T05:05:34.980Z,52.17
2019-01-23T05:08:04.429Z,49.90
2019-01-23T05:10:33.938Z,48.10
2019-01-23T05:13:03.350Z,51.17
2019-01-23T05:15:32.936Z,49.87
2019-01-23T05:18:02.479Z,54.10
2019-01-23T05:20:31.888Z,56.53
2019-01-23T05:23:01.500Z,47.43
2019-01-23T05:25:31.079Z,54.57
2019-01-23T05:28:00.617Z,58.17
2019-01-23T05:30:30.103Z,57.33
2019-01-23T05:32:59.533Z,63.87
2019-01-23T05:35:28.923Z,57.70
2019-01-23T05:37:58.362Z,64.83
2019-01-23T05:40:27.948Z,58.07
2019-01-23T05:42:57.492Z,61.30
2019-01-23T05:45:26.977Z,57.77
2019-01-23T05:47:56.447Z,60.80
2019-01-23T05:50:25.894Z,61.27
2019-01-23T05:52:55.266Z,59.50
2019-01-23T05:55:24.827Z,58.03
2019-01-23T05:57:54.381Z,62.23
2019-01-23T06:00:24.029Z,60.63
2019-01-23T06:02:53.646Z,59.67
2019-01-23T06:05:23.239Z,61.07
2019-01-23T06:07:52.640Z,59.47
2019-01-23T06:10:22.110Z,59.50
2019-01-23T06:12:51.560Z,67.47
2019-01-23T06:15:21.076Z,60.40
2019-01-23T06:17:50.522Z,58.83
2019-01-23T06:20:21.306Z,57.13
2019-01-23T06:22:50.774Z,62.50
2019-01-23T06:25:20.343Z,59.33
2019-01-23T06:27:49.846Z,57.60
2019-01-23T06:30:24.548Z,58.87
2019-01-23T06:32:54.111Z,63.93
2019-01-23T06:35:23.550Z,60.53
2019-01-23T06:37:53.060Z,61.93
2019-01-23T06:40:22.454Z,58.13
2019-01-23T06:42:51.956Z,59.20
2019-01-23T06:45:21.644Z,53.20
2019-01-23T06:47:51.260Z,60.63
2019-01-23T06:50:21.964Z,50.87
2019-01-23T06:52:51.430Z,57.37
2019-01-23T06:55:21.089Z,59.50
2019-01-23T06:57:50.552Z,63.90
2019-01-23T07:00:22.076Z,54.90
2019-01-23T07:02:51.702Z,58.10
2019-01-23T07:05:21.468Z,53.60
2019-01-23T07:07:50.949Z,70.70
2019-01-23T07:10:22.866Z,53.13
2019-01-23T07:12:52.339Z,55.33
2019-01-23T07:15:21.714Z,57.50
2019-01-23T07:17:51.229Z,60.10
2019-01-23T07:20:22.522Z,55.23
2019-01-23T07:22:51.936Z,55.03
2019-01-23T07:25:21.851Z,57.53
2019-01-23T07:27:51.455Z,56.30
2019-01-23T07:30:26.559Z,63.87
2019-01-23T07:32:56.011Z,59.13
2019-01-23T07:35:25.602Z,66.33
2019-01-23T07:37:55.186Z,63.10
2019-01-23T07:40:24.663Z,65.80
2019-01-23T07:42:54.034Z,61.70
2019-01-23T07:45:26.022Z,57.47
2019-01-23T07:47:55.500Z,63.23
2019-01-23T07:50:25.116Z,58.63
2019-01-23T07:52:54.726Z,61.33
2019-01-23T07:55:24.334Z,60.60
2019-01-23T07:57:53.885Z,60.27
2019-01-23T08:00:31.241Z,65.17
2019-01-23T08:02:57.023Z,59.47
2019-01-23T08:05:26.911Z,69.40
2019-01-23T08:07:56.347Z,65.73
2019-01-23T08:10:25.714Z,69.10
2019-01-23T08:12:55.214Z,61.03
2019-01-23T08:15:27.366Z,64.00
2019-01-23T08:17:56.913Z,66.57
2019-01-23T08:20:28.812Z,71.20
2019-01-23T08:22:58.753Z,81.73
2019-01-23T08:25:28.237Z,74.43
2019-01-23T08:27:57.869Z,68.47
2019-01-23T08:30:27.548Z,63.67
2019-01-23T08:32:56.988Z,68.67
2019-01-23T08:35:26.794Z,63.97
2019-01-23T08:37:56.503Z,67.70
2019-01-23T08:40:26.014Z,86.73
2019-01-23T08:42:55.533Z,79.30
2019-01-23T08:45:25.081Z,68.80
2019-01-23T08:47:54.582Z,94.90
2019-01-23T08:50:32.906Z,69.23
2019-01-23T08:53:02.384Z,76.17
2019-01-23T08:55:31.836Z,73.10
2019-01-23T08:58:01.395Z,84.00
2019-01-23T09:00:30.868Z,75.03
2019-01-23T09:03:00.413Z,65.10
2019-01-23T09:05:29.906Z,70.93
2019-01-23T09:07:59.467Z,68.00
2019-01-23T09:10:30.079Z,68.43
2019-01-23T09:12:59.799Z,64.63
2019-01-23T09:15:29.287Z,67.43
2019-01-23T09:17:58.871Z,73.23
2019-01-23T09:20:28.405Z,65.83
2019-01-23T09:22:57.922Z,66.90
2019-01-23T09:25:28.059Z,69.63
2019-01-23T09:27:57.619Z,73.23
2019-01-23T09:30:39.613Z,60.30
2019-01-23T09:33:32.791Z,76.87
2019-01-23T09:36:08.033Z,65.10
2019-01-23T09:39:13.746Z,70.37
2019-01-23T09:42:03.825Z,63.80
2019-01-23T09:45:09.083Z,67.43
2019-01-23T09:47:41.691Z,69.20
2019-01-23T09:50:14.221Z,64.97
2019-01-23T09:52:55.671Z,71.77
2019-01-23T09:55:25.125Z,69.13
2019-01-23T09:57:54.821Z,75.00
2019-01-23T10:00:31.964Z,82.77
2019-01-23T10:02:59.938Z,70.67
2019-01-23T10:05:29.469Z,68.13
2019-01-23T10:07:58.955Z,70.87
2019-01-23T10:10:28.463Z,86.07
2019-01-23T10:12:57.955Z,70.20
2019-01-23T10:15:33.180Z,80.03
2019-01-23T10:18:02.745Z,73.53
2019-01-23T10:20:32.209Z,69.67
2019-01-23T10:23:01.747Z,62.13
2019-01-23T10:25:31.342Z,69.60
2019-01-23T10:28:00.935Z,70.13
2019-01-23T10:30:30.593Z,70.23
2019-01-23T10:33:00.063Z,64.17
2019-01-23T10:35:29.544Z,74.53
2019-01-23T10:37:59.155Z,67.10
2019-01-23T10:40:28.627Z,66.60
2019-01-23T10:42:58.093Z,67.40
2019-01-23T10:45:27.678Z,69.13
2019-01-23T10:47:57.453Z,64.30
2019-01-23T10:50:27.747Z,68.23
2019-01-23T10:52:57.231Z,61.13
2019-01-23T10:55:26.863Z,67.80
2019-01-23T10:57:56.446Z,67.63
2019-01-23T11:00:26.171Z,69.20
2019-01-23T11:02:55.635Z,70.30
2019-01-23T11:05:26.507Z,65.83
2019-01-23T11:07:56.097Z,81.50
2019-01-23T11:10:25.804Z,67.33
2019-01-23T11:12:55.489Z,70.87
2019-01-23T11:15:25.063Z,78.93
2019-01-23T11:17:54.901Z,68.20
2019-01-23T11:20:24.505Z,73.30
2019-01-23T11:22:53.971Z,72.63
2019-01-23T11:25:23.528Z,74.57
2019-01-23T11:27:53.032Z,68.60
2019-01-23T11:30:25.108Z,72.47
2019-01-23T11:32:54.607Z,74.00
2019-01-23T11:35:24.465Z,77.17
2019-01-23T11:37:54.125Z,76.77
2019-01-23T11:40:29.273Z,75.47
2019-01-23T11:42:58.843Z,82.80
2019-01-23T11:45:28.373Z,74.63
2019-01-23T11:47:58.041Z,70.70
2019-01-23T11:50:27.518Z,79.63
2019-01-23T11:52:56.935Z,87.40
2019-01-23T11:55:26.326Z,75.20
2019-01-23T11:57:55.895Z,76.03
2019-01-23T12:00:27.469Z,82.27
2019-01-23T12:02:56.862Z,77.83
2019-01-23T12:05:26.465Z,80.63
2019-01-23T12:07:56.121Z,86.67
2019-01-23T12:10:25.722Z,86.77
2019-01-23T12:12:55.174Z,94.40
2019-01-23T12:15:25.318Z,86.60
2019-01-23T12:17:54.785Z,91.43
2019-01-23T12:20:24.397Z,92.50
2019-01-23T12:22:54.130Z,94.80
2019-01-23T12:25:23.643Z,103.10
2019-01-23T12:27:53.163Z,99.27
2019-01-23T12:30:25.763Z,103.53
2019-01-23T12:32:55.410Z,103.40
2019-01-23T12:35:24.981Z,106.73
2019-01-23T12:37:54.510Z,94.93
2019-01-23T12:40:24.155Z,103.33
2019-01-23T12:42:53.868Z,95.70
2019-01-23T12:45:28.201Z,96.30
2019-01-23T12:47:57.712Z,97.97
2019-01-23T12:50:29.969Z,92.43
2019-01-23T12:52:59.683Z,102.03
2019-01-23T12:55:29.201Z,102.20
2019-01-23T12:57:58.783Z,92.43
2019-01-23T13:00:31.681Z,96.37
2019-01-23T13:03:01.654Z,100.70
2019-01-23T13:05:31.347Z,105.03
2019-01-23T13:08:00.815Z,95.03
2019-01-23T13:10:30.792Z,104.57
2019-01-23T13:13:00.141Z,100.80
2019-01-23T13:15:29.790Z,101.60
2019-01-23T13:17:59.544Z,101.97
2019-01-23T13:20:29.203Z,104.50
2019-01-23T13:23:00.285Z,103.63
2019-01-23T13:25:30.112Z,116.80
2019-01-23T13:28:01.271Z,106.03
2019-01-23T13:30:30.833Z,107.87
2019-01-23T13:33:00.603Z,114.03
2019-01-23T13:35:32.767Z,105.27
2019-01-23T13:38:03.069Z,104.33
2019-01-23T13:40:35.280Z,109.00
2019-01-23T13:43:06.591Z,120.27
2019-01-23T13:45:36.227Z,120.73
2019-01-23T13:48:06.869Z,110.77
2019-01-23T13:50:36.328Z,117.93
2019-01-23T13:53:05.950Z,112.67
2019-01-23T13:55:35.725Z,124.27
2019-01-23T13:58:05.556Z,118.10
2019-01-23T14:00:37.361Z,110.90
2019-01-23T14:03:07.287Z,127.33
2019-01-23T14:05:37.090Z,117.40
2019-01-23T14:08:07.542Z,118.37
2019-01-23T14:10:37.093Z,111.40
2019-01-23T14:13:08.376Z,111.33
2019-01-23T14:15:39.820Z,119.37
2019-01-23T14:18:10.148Z,117.23
2019-01-23T14:20:39.602Z,116.07
2019-01-23T14:23:09.110Z,107.27
2019-01-23T14:25:38.630Z,119.83
2019-01-23T14:28:08.180Z,123.33
2019-01-23T14:30:40.093Z,113.63
2019-01-23T14:33:09.656Z,116.53
2019-01-23T14:35:39.684Z,110.40
2019-01-23T14:38:09.203Z,107.23
2019-01-23T14:40:39.014Z,113.20
2019-01-23T14:43:08.565Z,109.03
2019-01-23T14:45:38.116Z,111.83
2019-01-23T14:48:09.258Z,110.13
2019-01-23T14:50:38.708Z,112.37
2019-01-23T14:53:08.171Z,105.73
2019-01-23T14:55:37.575Z,113.07
2019-01-23T14:58:07.112Z,119.57
2019-01-23T15:00:36.710Z,104.37
2019-01-23T15:03:06.282Z,115.07
2019-01-23T15:05:35.904Z,112.10
2019-01-23T15:08:05.524Z,109.73
2019-01-23T15:10:34.980Z,114.20
2019-01-23T15:13:05.006Z,112.83
2019-01-23T15:15:34.634Z,116.47
2019-01-23T15:18:04.390Z,114.33
2019-01-23T15:20:38.505Z,116.53
2019-01-23T15:23:08.023Z,116.43
2019-01-23T15:25:37.462Z,123.30
2019-01-23T15:28:07.136Z,123.03
2019-01-23T15:30:36.620Z,116.83
2019-01-23T15:33:06.202Z,128.83
2019-01-23T15:35:35.944Z,125.27
2019-01-23T15:38:05.619Z,126.47
2019-01-23T15:40:35.672Z,125.80
2019-01-23T15:43:05.308Z,118.70
2019-01-23T15:45:34.877Z,120.00
2019-01-23T15:48:04.584Z,124.70
2019-01-23T15:50:34.076Z,120.30
2019-01-23T15:53:03.490Z,123.17
2019-01-23T15:55:32.914Z,124.00
2019-01-23T15:58:02.314Z,123.93
2019-01-23T16:00:32.830Z,122.10
2019-01-23T16:03:02.442Z,125.43
2019-01-23T16:05:31.936Z,126.53
2019-01-23T16:08:01.406Z,124.07
2019-01-23T16:10:31.019Z,117.70
2019-01-23T16:13:00.560Z,125.90
2019-01-23T16:15:30.576Z,129.53
2019-01-23T16:18:00.073Z,127.47
2019-01-23T16:20:29.623Z,131.17
2019-01-23T16:22:59.288Z,124.77
2019-01-23T16:25:28.779Z,128.30
2019-01-23T16:27:58.438Z,133.57
2019-01-23T16:30:33.606Z,135.03
2019-01-23T16:33:03.006Z,138.90
2019-01-23T16:35:38.553Z,133.00
2019-01-23T16:38:03.898Z,144.57
2019-01-23T16:40:33.407Z,137.57
2019-01-23T16:43:02.970Z,136.27
2019-01-23T16:45:32.440Z,132.47
2019-01-23T16:48:02.114Z,143.60
2019-01-23T16:50:31.780Z,135.67
2019-01-23T16:53:01.318Z,141.80
2019-01-23T16:55:30.832Z,137.83
2019-01-23T16:58:00.346Z,140.57
2019-01-23T17:00:29.986Z,134.63
2019-01-23T17:03:00.032Z,140.50
2019-01-23T17:05:31.397Z,143.00
2019-01-23T17:08:02.606Z,143.57
2019-01-23T17:10:32.178Z,151.83
2019-01-23T17:13:01.676Z,142.67
2019-01-23T17:15:31.239Z,150.80
2019-01-23T17:18:00.784Z,153.77
2019-01-23T17:20:35.858Z,152.13
2019-01-23T17:23:05.770Z,151.33
2019-01-23T17:25:35.224Z,151.27
2019-01-23T17:28:06.550Z,152.80
2019-01-23T17:30:36.156Z,142.57
2019-01-23T17:33:05.845Z,146.60
2019-01-23T17:35:35.306Z,146.47
2019-01-23T17:38:04.918Z,158.20
2019-01-23T17:40:34.343Z,149.00
2019-01-23T17:43:03.944Z,154.27
2019-01-23T17:45:40.303Z,155.03
2019-01-23T17:48:11.579Z,145.27
2019-01-23T17:50:41.466Z,146.10
2019-01-23T17:53:10.994Z,152.57
2019-01-23T17:55:40.661Z,152.47
2019-01-23T17:58:11.292Z,147.97
2019-01-23T18:00:42.535Z,154.90
2019-01-23T18:03:12.032Z,152.47
2019-01-23T18:05:41.510Z,148.83
2019-01-23T18:08:11.059Z,147.67
2019-01-23T18:10:40.651Z,143.90
2019-01-23T18:13:10.227Z,136.10
2019-01-23T18:15:41.242Z,137.80
2019-01-23T18:18:12.611Z,135.53
2019-01-23T18:20:42.171Z,138.80
2019-01-23T18:23:11.654Z,147.57
2019-01-23T18:25:41.182Z,148.80
2019-01-23T18:28:10.706Z,143.23
2019-01-23T18:30:43.300Z,149.40
2019-01-23T18:33:15.842Z,140.90
2019-01-23T18:35:51.220Z,135.00
2019-01-23T18:38:23.799Z,152.30
2019-01-23T18:41:04.950Z,143.60
2019-01-23T18:43:49.280Z,144.67
2019-01-23T18:46:38.377Z,141.47
2019-01-23T18:49:17.011Z,141.93
2019-01-23T18:51:47.203Z,143.47
2019-01-23T18:54:16.763Z,140.77
2019-01-23T18:56:46.276Z,139.10
2019-01-23T18:59:15.752Z,145.67
2019-01-23T19:01:45.175Z,154.57
2019-01-23T19:04:14.686Z,144.27
2019-01-23T19:06:44.129Z,144.70
2019-01-23T19:09:13.553Z,143.37
2019-01-23T19:11:43.046Z,151.47
2019-01-23T19:14:12.541Z,146.17
2019-01-23T19:16:42.021Z,142.27
2019-01-23T19:21:46.843Z,161.90
2019-01-23T19:24:16.299Z,144.57
2019-01-23T19:26:45.852Z,152.47
2019-01-23T19:29:15.402Z,147.53
2019-01-23T19:31:44.937Z,152.83
2019-01-23T19:34:14.408Z,155.83
2019-01-23T19:36:44.824Z,150.43
2019-01-23T19:39:14.404Z,151.00
2019-01-23T19:41:43.908Z,153.73
2019-01-23T19:44:13.454Z,143.47
2019-01-23T19:46:42.932Z,149.57
2019-01-23T19:49:12.525Z,149.00
2019-01-23T19:51:42.066Z,159.03
2019-01-23T19:54:11.445Z,153.07
2019-01-23T19:56:41.014Z,153.87
2019-01-23T19:59:10.513Z,149.33
2019-01-23T20:01:40.102Z,149.20
2019-01-23T20:04:09.504Z,146.77
2019-01-23T20:06:38.974Z,148.47
2019-01-23T20:09:09.823Z,152.77
2019-01-23T20:11:39.420Z,141.20
2019-01-23T20:14:08.920Z,148.20
2019-01-23T20:16:38.381Z,153.97
2019-01-23T20:19:09.102Z,141.13
2019-01-23T20:21:38.671Z,139.43
2019-01-23T20:24:08.220Z,137.77
2019-01-23T20:26:37.790Z,150.93
2019-01-23T20:29:07.517Z,161.13
2019-01-23T20:31:37.015Z,144.57
2019-01-23T20:34:06.527Z,144.00
2019-01-23T20:36:36.057Z,150.70
2019-01-23T20:39:07.961Z,151.03
2019-01-23T20:41:37.495Z,138.70
2019-01-23T20:44:07.026Z,143.27
2019-01-23T20:46:36.514Z,143.40
2019-01-23T20:49:06.083Z,149.73
2019-01-23T20:51:35.579Z,150.93
2019-01-23T20:54:05.109Z,151.97
2019-01-23T20:56:34.625Z,141.63
2019-01-23T20:59:04.305Z,152.57
2019-01-23T21:01:33.817Z,149.57
2019-01-23T21:04:03.289Z,146.70
2019-01-23T21:06:32.783Z,130.37
2019-01-23T21:09:02.222Z,139.97
2019-01-23T21:11:31.720Z,153.50
2019-01-23T21:14:01.229Z,146.47
2019-01-23T21:16:30.652Z,143.03
2019-01-23T21:19:00.150Z,145.27
2019-01-23T21:21:29.633Z,140.03
2019-01-23T21:23:59.059Z,140.23
2019-01-23T21:26:28.555Z,139.83
2019-01-23T21:28:58.189Z,135.80
2019-01-23T21:31:27.543Z,147.23
2019-01-23T21:33:57.005Z,146.60
2019-01-23T21:36:26.441Z,139.63
2019-01-23T21:38:55.902Z,144.53
2019-01-23T21:41:25.305Z,141.63
2019-01-23T21:43:54.728Z,146.57
2019-01-23T21:46:24.245Z,146.70
2019-01-23T21:48:53.605Z,149.63
2019-01-23T21:51:23.107Z,140.33
2019-01-23T21:53:52.590Z,142.83
2019-01-23T21:56:22.130Z,146.33
2019-01-23T21:58:51.599Z,141.67
2019-01-23T22:01:21.033Z,144.53
2019-01-23T22:03:50.535Z,147.23
2019-01-23T22:06:20.979Z,148.97
2019-01-23T22:08:50.413Z,145.40
2019-01-23T22:11:19.821Z,135.53
2019-01-23T22:13:49.291Z,141.23
2019-01-23T22:16:18.766Z,144.73
2019-01-23T22:18:48.280Z,151.37
2019-01-23T22:21:17.705Z,145.57
2019-01-23T22:23:47.245Z,149.97
2019-01-23T22:26:18.671Z,142.87
2019-01-23T22:28:48.284Z,146.53
2019-01-23T22:31:17.869Z,144.23
2019-01-23T22:33:47.339Z,144.97
2019-01-23T22:36:16.893Z,148.77
2019-01-23T22:38:46.357Z,138.80
2019-01-23T22:41:15.885Z,142.40
2019-01-23T22:43:45.348Z,147.07
2019-01-23T22:46:14.779Z,139.77
2019-01-23T22:48:44.266Z,141.40
2019-01-23T22:51:13.747Z,149.43
2019-01-23T22:53:43.138Z,142.27
2019-01-23T22:56:12.574Z,146.63
2019-01-23T22:58:42.063Z,146.77
2019-01-23T23:01:14.645Z,143.00
2019-01-23T23:03:44.185Z,139.20
2019-01-23T23:06:13.615Z,140.13
2019-01-23T23:08:43.010Z,135.80
2019-01-23T23:11:12.507Z,144.00
2019-01-23T23:13:41.988Z,139.37
2019-01-23T23:16:11.476Z,143.07
2019-01-23T23:18:41.029Z,138.73
2019-01-23T23:21:10.534Z,134.30
2019-01-23T23:23:40.003Z,137.93
2019-01-23T23:26:09.415Z,131.33
2019-01-23T23:28:38.995Z,137.30
2019-01-23T23:31:08.499Z,124.13
2019-01-23T23:33:38.855Z,131.17
2019-01-23T23:36:08.389Z,121.53
2019-01-23T23:38:37.945Z,139.43
2019-01-23T23:41:07.491Z,132.97
2019-01-23T23:43:36.977Z,131.73
2019-01-23T23:46:06.407Z,122.67
2019-01-23T23:48:35.915Z,120.10
2019-01-23T23:51:05.427Z,122.97
2019-01-23T23:53:34.909Z,133.50
2019-01-23T23:56:04.614Z,126.23
2019-01-23T23:58:34.057Z,124.77
